Time;durP1;ratioP1;P1;durP2;ratioP2;P2;SDS_P1;SDS_P2;PMS_P1;PMS_P2;Temp;Humidity;BMP_temperature;BMP_pressure;BME280_temperature;BME280_humidity;BME280_pressure;Samples;Min_cycle;Max_cycle;Signal;HPM_P1;HPM_P2
2022/04/01 00:02:22;;;;;;;1.00;0.95;;;;;;;15.09;66.07;97856.88;6276993;22;20132;-84
2022/04/01 00:04:48;;;;;;;0.17;0.17;;;;;;;15.12;65.73;97876.94;6277445;22;20453;-84
2022/04/01 00:07:14;;;;;;;1.55;0.65;;;;;;;15.12;65.95;97895.78;6277433;22;20556;-86
2022/04/01 00:09:40;;;;;;;0.00;0.00;;;;;;;15.11;65.72;97867.28;6276505;22;19999;-85
2022/04/01 00:12:07;;;;;;;0.10;0.10;;;;;;;15.14;65.36;97859.31;6277283;22;20011;-86
2022/04/01 00:14:32;;;;;;;0.00;0.00;;;;;;;15.11;65.51;97841.16;6276950;22;20007;-83
2022/04/01 00:16:58;;;;;;;0.00;0.00;;;;;;;15.10;65.53;97833.41;6277220;22;20504;-82
2022/04/01 00:19:24;;;;;;;0.45;0.45;;;;;;;15.09;65.39;97803.00;6276960;22;20018;-81
2022/04/01 00:21:50;;;;;;;0.28;0.28;;;;;;;15.08;65.38;97747.59;6277584;22;20096;-79
2022/04/01 00:24:16;;;;;;;0.00;0.00;;;;;;;15.10;65.12;97729.19;6276908;22;20006;-80
2022/04/01 00:26:43;;;;;;;0.45;0.45;;;;;;;15.09;65.07;97714.16;6277140;22;20472;-79
2022/04/01 00:29:15;;;;;;;2.90;1.55;;;;;;;15.13;64.68;97714.25;6277243;22;20007;-78
2022/04/01 00:31:49;;;;;;;1.17;0.73;;;;;;;15.15;64.52;97730.88;6276921;22;20007;-78
2022/04/01 00:34:18;;;;;;;0.55;0.55;;;;;;;15.13;64.64;97722.34;6277137;22;20007;-78
2022/04/01 00:36:48;;;;;;;0.32;0.32;;;;;;;15.12;64.33;97710.78;6304375;22;20007;-83
2022/04/01 00:39:16;;;;;;;1.00;0.90;;;;;;;15.13;64.47;97696.19;6277234;22;20007;-79
2022/04/01 00:41:44;;;;;;;0.40;0.40;;;;;;;15.15;63.88;97752.41;6276819;22;20082;-83
2022/04/01 00:44:18;;;;;;;0.00;0.00;;;;;;;15.16;63.94;97764.75;6277422;22;20072;-80
2022/04/01 00:46:46;;;;;;;0.00;0.00;;;;;;;15.16;63.85;97762.03;6276214;22;20011;-81
2022/04/01 00:49:12;;;;;;;1.00;0.73;;;;;;;15.16;63.89;97765.53;6277301;22;20003;-85
2022/04/01 00:51:41;;;;;;;0.55;0.55;;;;;;;15.16;63.94;97753.97;6276953;22;20072;-83
2022/04/01 00:54:07;;;;;;;2.88;2.30;;;;;;;15.15;64.25;97766.66;6277080;22;20436;-79
2022/04/01 00:56:34;;;;;;;18.15;0.85;;;;;;;15.10;64.18;97756.13;6276728;22;20017;-78
2022/04/01 00:59:00;;;;;;;0.63;0.63;;;;;;;15.07;64.09;97762.16;6304601;22;20014;-77
2022/04/01 01:01:26;;;;;;;0.20;0.20;;;;;;;15.10;63.78;97777.66;6276518;22;20007;-78
2022/04/01 01:03:52;;;;;;;0.30;0.30;;;;;;;15.09;63.50;97807.59;6277334;22;20007;-80
2022/04/01 01:06:19;;;;;;;1.85;0.98;;;;;;;15.07;63.94;97842.94;6276803;22;19999;-79
2022/04/01 01:08:45;;;;;;;0.00;0.00;;;;;;;15.08;63.44;97838.34;6277213;22;20437;-81
2022/04/01 01:11:11;;;;;;;0.20;0.20;;;;;;;15.10;63.38;97863.03;6277015;22;20010;-82
2022/04/01 01:13:37;;;;;;;0.15;0.15;;;;;;;15.09;63.00;97843.41;6276304;22;20018;-80
2022/04/01 01:16:03;;;;;;;0.10;0.10;;;;;;;15.10;62.94;97783.03;6277135;22;20345;-80
2022/04/01 01:18:29;;;;;;;0.85;0.57;;;;;;;15.07;62.73;97729.84;6276591;22;20003;-82
2022/04/01 01:20:54;;;;;;;0.30;0.30;;;;;;;15.11;62.49;97700.34;6277165;22;20011;-80
2022/04/01 01:23:28;;;;;;;0.00;0.00;;;;;;;15.09;62.19;97644.16;6276909;22;20002;-78
2022/04/01 01:25:54;;;;;;;0.25;0.25;;;;;;;15.14;61.53;97708.53;6276391;22;20019;-80
2022/04/01 01:28:21;;;;;;;0.32;0.32;;;;;;;15.10;60.97;97737.28;6276684;22;20003;-80
2022/04/01 01:30:47;;;;;;;0.82;0.63;;;;;;;15.15;60.51;97717.41;6276755;22;20440;-86
2022/04/01 01:33:12;;;;;;;0.17;0.17;;;;;;;15.19;60.48;97710.22;6277285;22;20007;-82
2022/04/01 01:35:38;;;;;;;0.82;0.35;;;;;;;15.21;60.21;97662.97;6276690;22;20004;-81
2022/04/01 01:38:04;;;;;;;0.20;0.20;;;;;;;15.25;59.54;97673.06;6277104;22;20014;-86
2022/04/01 01:40:30;;;;;;;0.10;0.10;;;;;;;15.25;59.67;97753.88;6276756;22;20011;-84
2022/04/01 01:42:56;;;;;;;0.15;0.15;;;;;;;15.27;59.40;97751.59;6276707;22;20003;-84
2022/04/01 01:45:21;;;;;;;0.13;0.13;;;;;;;15.34;59.06;97743.75;6276393;22;20010;-80
2022/04/01 01:47:46;;;;;;;0.00;0.00;;;;;;;15.33;58.40;97713.34;6277104;22;20048;-79
2022/04/01 01:55:40;;;;;;;0.45;0.45;;;;;;;15.45;57.73;97733.28;6303700;22;20057;-80
2022/04/01 01:58:05;;;;;;;0.38;0.38;;;;;;;15.46;57.84;97708.69;6277465;22;20496;-79
2022/04/01 02:00:31;;;;;;;1.38;0.50;;;;;;;15.45;57.85;97704.44;6277873;22;20003;-79
2022/04/01 02:02:57;;;;;;;0.13;0.13;;;;;;;15.44;57.71;97692.09;6278755;22;20329;-80
2022/04/01 02:05:22;;;;;;;0.80;0.80;;;;;;;15.44;57.78;97683.22;6278360;22;20007;-79
2022/04/01 02:07:47;;;;;;;0.25;0.25;;;;;;;15.44;58.50;97705.56;6278411;22;20031;-82
2022/04/01 02:10:15;;;;;;;0.50;0.50;;;;;;;15.45;58.48;97700.94;6278709;22;20011;-80
2022/04/01 02:12:41;;;;;;;0.00;0.00;;;;;;;15.44;58.31;97675.94;6277868;22;20041;-80
2022/04/01 02:15:10;;;;;;;0.10;0.10;;;;;;;15.43;58.27;97719.34;6278403;22;20007;-81
2022/04/01 02:17:40;;;;;;;7.82;3.05;;;;;;;15.37;58.46;97743.06;6278147;22;20076;-79
2022/04/01 02:20:09;;;;;;;0.47;0.47;;;;;;;15.35;58.33;97772.25;6278658;22;20042;-81
2022/04/01 02:22:36;;;;;;;1.65;0.98;;;;;;;15.39;58.53;97748.88;6278196;22;20330;-79
2022/04/01 02:25:04;;;;;;;0.10;0.10;;;;;;;15.39;58.18;97759.66;6278206;22;20019;-79
2022/04/01 02:27:30;;;;;;;0.65;0.65;;;;;;;15.37;58.46;97767.31;6278231;22;20007;-79
2022/04/01 02:29:56;;;;;;;0.10;0.10;;;;;;;15.34;58.86;97727.56;6278393;22;20074;-78
2022/04/01 02:32:23;;;;;;;0.05;0.05;;;;;;;15.36;58.73;97717.25;6278256;22;20003;-80
2022/04/01 02:34:50;;;;;;;0.00;0.00;;;;;;;15.35;59.01;97713.00;6278239;22;19999;-84
2022/04/01 02:37:17;;;;;;;0.10;0.10;;;;;;;15.36;58.97;97696.47;6277770;22;20003;-84
2022/04/01 02:39:43;;;;;;;0.10;0.10;;;;;;;15.34;59.32;97666.44;6277868;22;20007;-82
2022/04/01 02:42:09;;;;;;;0.98;0.80;;;;;;;15.33;59.30;97677.53;6278279;22;20015;-82
2022/04/01 02:44:34;;;;;;;7.82;2.22;;;;;;;15.30;59.41;97687.06;6277965;22;20011;-79
2022/04/01 02:47:00;;;;;;;0.52;0.52;;;;;;;15.28;59.54;97699.31;6278158;22;20007;-89
2022/04/01 02:49:25;;;;;;;0.10;0.10;;;;;;;15.27;59.71;97679.69;6277930;22;20060;-86
2022/04/01 02:51:53;;;;;;;0.10;0.10;;;;;;;15.29;59.80;97673.94;6278887;22;20372;-89
2022/04/01 02:54:21;;;;;;;1.38;1.27;;;;;;;15.23;60.07;97721.09;6278816;22;20014;-89
2022/04/01 02:56:47;;;;;;;2.28;2.17;;;;;;;15.21;60.20;97734.91;6277932;22;20031;-84
2022/04/01 02:59:12;;;;;;;0.10;0.10;;;;;;;15.22;60.17;97693.38;6277862;22;20566;-82
2022/04/01 03:01:40;;;;;;;0.10;0.10;;;;;;;15.21;60.33;97699.91;6277640;22;20011;-83
2022/04/01 03:04:10;;;;;;;1.90;0.73;;;;;;;15.23;60.49;97715.72;6278135;22;20011;-83
2022/04/01 03:06:40;;;;;;;0.20;0.20;;;;;;;15.21;60.50;97732.22;6277902;22;20007;-84
2022/04/01 03:09:06;;;;;;;3.42;1.08;;;;;;;15.24;61.03;97709.22;6277652;22;20007;-84
2022/04/01 03:11:32;;;;;;;0.13;0.13;;;;;;;15.23;60.76;97726.47;6277784;22;20026;-85
2022/04/01 03:13:57;;;;;;;0.80;0.80;;;;;;;15.25;60.28;97732.31;6277996;22;20437;-86
2022/04/01 03:16:24;;;;;;;0.57;0.57;;;;;;;15.28;60.86;97735.13;6277727;22;20014;-88
2022/04/01 03:18:50;;;;;;;1.75;0.70;;;;;;;15.31;60.81;97725.56;6277833;22;20003;-88
2022/04/01 03:21:16;;;;;;;0.00;0.00;;;;;;;15.32;60.70;97697.53;6278090;22;20060;-89
2022/04/01 03:23:43;;;;;;;0.13;0.13;;;;;;;15.30;60.47;97697.84;6277681;22;20436;-88
2022/04/01 03:26:09;;;;;;;1.87;1.77;;;;;;;15.33;60.66;97697.19;6277609;22;20015;-84
2022/04/01 03:28:35;;;;;;;0.17;0.17;;;;;;;15.32;60.58;97675.97;6276999;22;20450;-83
2022/04/01 03:31:04;;;;;;;1.45;1.08;;;;;;;15.36;60.78;97671.47;6278440;22;20007;-92
2022/04/01 03:33:37;;;;;;;1.88;1.00;;;;;;;15.34;60.68;97650.25;6253950;22;20015;-90
2022/04/01 03:36:04;;;;;;;0.30;0.30;;;;;;;15.27;60.74;97674.31;6278474;22;19999;-91
2022/04/01 03:38:31;;;;;;;0.40;0.40;;;;;;;15.28;61.11;97661.59;6252993;22;20440;-92
2022/04/01 03:41:00;;;;;;;0.25;0.25;;;;;;;15.29;61.19;97671.25;6280505;22;20026;-91
2022/04/01 03:43:26;;;;;;;0.13;0.13;;;;;;;15.28;61.10;97667.78;6280737;22;20006;-94
2022/04/01 03:45:54;;;;;;;0.25;0.25;;;;;;;15.27;61.08;97685.06;6281790;22;19999;-92
2022/04/01 03:48:46;;;;;;;0.38;0.38;;;;;;;15.31;60.84;97671.72;6232918;22;20012;-92
2022/04/01 03:55:29;;;;;;;0.93;0.93;;;;;;;15.25;61.00;97690.00;6268838;22;20038;-94
2022/04/01 03:58:32;;;;;;;0.20;0.10;;;;;;;15.08;61.50;97707.19;6192297;23;20394;-92
2022/04/01 04:01:04;;;;;;;0.10;0.10;;;;;;;15.12;61.43;97710.00;6260869;22;20003;-87
2022/04/01 04:03:31;;;;;;;0.10;0.10;;;;;;;15.15;61.21;97698.56;6277152;22;20022;-87
2022/04/01 04:05:58;;;;;;;0.10;0.10;;;;;;;15.17;61.26;97705.19;6277264;22;20022;-87
2022/04/01 04:08:24;;;;;;;1.27;1.17;;;;;;;15.19;61.00;97694.06;6277399;22;19999;-89
2022/04/01 04:10:51;;;;;;;0.20;0.20;;;;;;;15.15;61.19;97702.03;6277408;22;20007;-89
2022/04/01 04:13:18;;;;;;;0.13;0.13;;;;;;;15.17;60.92;97717.84;6278068;22;20007;-91
2022/04/01 04:16:15;;;;;;;0.45;0.45;;;;;;;15.18;61.13;97714.03;6279401;22;20010;-92
2022/04/01 04:19:16;;;;;;;0.00;0.00;;;;;;;15.21;60.92;97699.91;6279311;22;20078;-92
2022/04/01 04:22:00;;;;;;;1.25;0.75;;;;;;;15.23;60.51;97702.25;6278525;22;20149;-91
2022/04/01 04:24:36;;;;;;;3.65;0.82;;;;;;;15.26;60.04;97682.69;6278319;22;20015;-87
2022/04/01 04:27:25;;;;;;;0.13;0.13;;;;;;;15.27;59.47;97677.00;6277993;22;20003;-87
2022/04/01 04:34:33;;;;;;;0.68;0.68;;;;;;;15.28;59.50;97667.00;6221857;23;20015;-96
2022/04/01 04:37:00;;;;;;;0.20;0.20;;;;;;;15.38;59.31;97677.31;6182010;23;20005;-86
2022/04/01 04:40:25;;;;;;;0.30;0.30;;;;;;;15.48;58.51;97686.81;6275112;22;20003;-94
2022/04/01 04:43:23;;;;;;;0.28;0.28;;;;;;;15.47;58.57;97687.94;6275021;22;20432;-90
2022/04/01 04:50:00;;;;;;;0.20;0.20;;;;;;;15.55;58.09;97675.44;6313835;22;20010;-93
2022/04/01 04:53:00;;;;;;;3.80;2.15;;;;;;;15.62;57.87;97673.72;6241005;22;20475;-93
2022/04/01 04:55:26;;;;;;;0.25;0.25;;;;;;;15.71;57.76;97678.19;6192781;23;20001;-94
2022/04/01 05:02:04;;;;;;;0.63;0.63;;;;;;;15.82;57.24;97660.41;6309628;22;20025;-95
2022/04/01 05:05:10;;;;;;;0.50;0.50;;;;;;;15.86;57.33;97661.31;6305427;22;20000;-92
2022/04/01 05:08:02;;;;;;;1.55;1.08;;;;;;;15.92;57.04;97651.06;6260070;22;20475;-85
2022/04/01 05:10:34;;;;;;;0.35;0.35;;;;;;;16.00;56.65;97642.81;6276394;22;20440;-86
2022/04/01 05:13:32;;;;;;;1.05;0.75;;;;;;;15.99;56.58;97656.63;6276557;22;20006;-87
2022/04/01 05:16:05;;;;;;;0.00;0.00;;;;;;;16.09;56.45;97663.44;6276538;22;19999;-88
2022/04/01 05:18:50;;;;;;;0.75;0.63;;;;;;;16.16;56.31;97652.81;6276841;22;20428;-83
2022/04/01 05:21:22;;;;;;;6.93;1.17;;;;;;;16.25;56.23;97645.34;6277140;22;20061;-85
2022/04/01 05:23:55;;;;;;;0.28;0.28;;;;;;;16.28;55.59;97655.44;6277072;22;20106;-89
2022/04/01 05:26:25;;;;;;;0.10;0.10;;;;;;;16.42;55.36;97649.59;6276798;22;20201;-89
2022/04/01 05:29:02;;;;;;;3.05;2.85;;;;;;;16.48;55.27;97644.75;6277176;22;20000;-87
2022/04/01 05:31:34;;;;;;;0.10;0.10;;;;;;;16.58;54.93;97644.19;6277388;22;20011;-87
2022/04/01 05:34:18;;;;;;;1.88;1.13;;;;;;;16.69;54.42;97632.88;6279288;22;20443;-91
2022/04/01 05:36:44;;;;;;;0.90;0.82;;;;;;;16.71;53.99;97639.50;6279093;22;20074;-89
2022/04/01 05:39:12;;;;;;;0.10;0.10;;;;;;;16.85;54.06;97646.34;6279506;22;20035;-88
2022/04/01 05:41:39;;;;;;;0.05;0.05;;;;;;;16.88;53.71;97627.53;6278708;22;20015;-85
2022/04/01 05:44:09;;;;;;;0.20;0.20;;;;;;;17.04;53.54;97659.91;6278743;22;20007;-83
2022/04/01 05:46:36;;;;;;;0.08;0.08;;;;;;;17.05;53.37;97636.38;6278674;22;20502;-85
2022/04/01 05:49:03;;;;;;;0.43;0.43;;;;;;;17.14;52.94;97642.38;6279398;22;20003;-86
2022/04/01 05:51:33;;;;;;;0.20;0.20;;;;;;;17.24;52.67;97652.59;6278950;22;20008;-85
2022/04/01 05:53:59;;;;;;;0.17;0.17;;;;;;;17.31;52.30;97632.28;6279200;22;20011;-81
2022/04/01 05:56:26;;;;;;;4.78;2.38;;;;;;;17.41;52.28;97640.59;6279017;22;20021;-82
2022/04/01 05:58:52;;;;;;;2.03;0.97;;;;;;;17.51;51.52;97654.69;6278554;22;20011;-78
2022/04/01 06:01:45;;;;;;;1.55;1.45;;;;;;;17.63;50.96;97645.66;6278138;22;20312;-78
2022/04/01 06:04:35;;;;;;;0.80;0.70;;;;;;;17.71;50.60;97642.72;6261731;22;20023;-78
2022/04/01 06:07:23;;;;;;;2.88;1.35;;;;;;;17.82;50.66;97626.69;6278173;22;19999;-84
2022/04/01 06:10:00;;;;;;;0.10;0.10;;;;;;;17.90;50.47;97627.59;6277933;22;20398;-83
2022/04/01 06:12:49;;;;;;;0.55;0.55;;;;;;;17.97;49.75;97629.66;6277740;22;20007;-82
2022/04/01 06:15:21;;;;;;;0.10;0.10;;;;;;;18.05;49.82;97639.47;6278129;22;20454;-83
2022/04/01 06:18:16;;;;;;;2.15;1.20;;;;;;;18.19;49.62;97642.44;6278549;22;20013;-89
2022/04/01 06:20:42;;;;;;;0.30;0.30;;;;;;;18.26;49.41;97655.31;6245077;22;20011;-82
2022/04/01 06:23:36;;;;;;;0.32;0.32;;;;;;;18.34;48.44;97610.19;6277492;22;19995;-86
2022/04/01 06:26:06;;;;;;;0.52;0.52;;;;;;;18.38;48.25;97624.56;6277722;22;20038;-89
2022/04/01 06:28:39;;;;;;;0.95;0.80;;;;;;;18.40;48.41;97611.44;6277761;22;20050;-88
2022/04/01 06:31:06;;;;;;;2.13;1.95;;;;;;;18.37;48.29;97615.66;6277757;22;20015;-79
2022/04/01 06:33:49;;;;;;;0.75;0.75;;;;;;;18.43;48.13;97624.28;6280010;22;20003;-82
2022/04/01 06:36:23;;;;;;;0.70;0.70;;;;;;;18.47;48.04;97618.88;6277847;22;20029;-82
2022/04/01 06:38:58;;;;;;;1.45;1.35;;;;;;;18.55;48.10;97624.06;6277263;22;20348;-81
2022/04/01 06:41:30;;;;;;;0.40;0.40;;;;;;;18.60;47.66;97627.59;6277637;22;20011;-81
2022/04/01 06:43:55;;;;;;;0.35;0.35;;;;;;;18.64;47.13;97610.25;6276704;22;20011;-81
2022/04/01 06:46:21;;;;;;;0.10;0.10;;;;;;;18.69;46.86;97626.19;6277270;22;20330;-81
2022/04/01 06:48:47;;;;;;;0.38;0.30;;;;;;;18.76;46.58;97586.81;6277358;22;20029;-85
2022/04/01 06:51:16;;;;;;;0.00;0.00;;;;;;;18.81;46.65;97617.06;6279709;22;20003;-90
2022/04/01 06:53:45;;;;;;;0.00;0.00;;;;;;;18.89;46.54;97634.19;6254390;22;20011;-90
2022/04/01 06:56:42;;;;;;;0.10;0.10;;;;;;;18.92;45.74;97611.84;6281766;22;19995;-91
2022/04/01 06:59:09;;;;;;;0.08;0.08;;;;;;;19.02;45.50;97611.19;6241353;22;20070;-92
2022/04/01 07:01:38;;;;;;;0.50;0.50;;;;;;;19.02;45.50;97608.47;6279126;22;20052;-90
2022/04/01 07:04:04;;;;;;;0.50;0.50;;;;;;;19.00;45.31;97599.16;6248579;22;20003;-78
2022/04/01 07:06:30;;;;;;;3.40;1.38;;;;;;;19.09;45.49;97613.22;6277700;22;20081;-84
2022/04/01 07:08:55;;;;;;;1.17;1.02;;;;;;;19.13;45.48;97621.41;6277680;22;20023;-86
2022/04/01 07:11:21;;;;;;;0.10;0.10;;;;;;;19.24;45.06;97602.53;6277852;22;20007;-85
2022/04/01 07:13:47;;;;;;;2.30;1.95;;;;;;;19.24;44.80;97589.78;6277918;22;20003;-86
2022/04/01 07:16:14;;;;;;;0.38;0.38;;;;;;;19.35;44.69;97582.53;6278094;22;20357;-85
2022/04/01 07:18:39;;;;;;;0.10;0.10;;;;;;;19.40;44.63;97586.88;6277638;22;20131;-83
2022/04/01 07:21:05;;;;;;;0.57;0.57;;;;;;;19.44;44.71;97589.63;6277976;22;20083;-85
2022/04/01 07:23:32;;;;;;;0.45;0.45;;;;;;;19.38;44.44;97601.94;6278215;22;20007;-85
2022/04/01 07:25:58;;;;;;;1.67;1.58;;;;;;;19.37;44.55;97579.47;6277537;22;20467;-83
2022/04/01 07:28:23;;;;;;;1.70;1.58;;;;;;;19.33;44.58;97597.63;6278157;22;20003;-84
2022/04/01 07:30:50;;;;;;;0.45;0.45;;;;;;;19.35;44.54;97560.88;6277826;22;20393;-86
2022/04/01 07:33:16;;;;;;;0.35;0.35;;;;;;;19.38;44.63;97585.69;6278081;22;20011;-87
2022/04/01 07:35:44;;;;;;;0.30;0.30;;;;;;;19.43;44.35;97550.09;6277784;22;20038;-85
2022/04/01 07:38:10;;;;;;;;;;;;;;;19.40;44.25;97557.03;6278251;22;20014;-87
2022/04/01 07:40:35;;;;;;;0.17;0.17;;;;;;;19.43;44.21;97567.16;6277649;22;19911;-87
2022/04/01 07:43:01;;;;;;;0.88;0.82;;;;;;;19.52;44.43;97564.16;6277703;22;20007;-86
2022/04/01 07:45:26;;;;;;;0.10;0.10;;;;;;;19.60;44.38;97554.91;6277197;22;20018;-86
2022/04/01 07:47:52;;;;;;;0.75;0.75;;;;;;;19.70;44.36;97539.13;6276542;22;20006;-86
2022/04/01 07:50:20;;;;;;;0.10;0.10;;;;;;;19.79;44.23;97534.19;6277013;22;20006;-85
2022/04/01 07:52:46;;;;;;;0.28;0.28;;;;;;;19.84;43.60;97531.91;6276778;22;20015;-85
2022/04/01 07:55:14;;;;;;;2.00;1.23;;;;;;;19.85;43.38;97540.84;6276881;22;20003;-86
2022/04/01 07:57:40;;;;;;;0.90;0.90;;;;;;;19.92;43.17;97532.78;6276808;22;20003;-87
2022/04/01 08:00:08;;;;;;;0.68;0.68;;;;;;;19.95;42.94;97515.72;6277373;22;20022;-87
2022/04/01 08:02:34;;;;;;;0.25;0.25;;;;;;;19.99;43.16;97551.81;6277062;22;20007;-86
2022/04/01 08:05:00;;;;;;;0.40;0.40;;;;;;;20.07;42.91;97536.38;6276950;22;20004;-86
2022/04/01 08:07:26;;;;;;;0.43;0.43;;;;;;;20.10;43.06;97557.34;6277227;22;20075;-87
2022/04/01 08:09:53;;;;;;;0.95;0.95;;;;;;;20.21;42.62;97529.50;6277390;22;20014;-87
2022/04/01 08:12:19;;;;;;;0.98;0.98;;;;;;;20.15;42.19;97496.47;6277641;22;20011;-87
2022/04/01 08:14:45;;;;;;;3.90;0.98;;;;;;;20.20;41.68;97527.91;6277311;22;20014;-87
2022/04/01 08:17:12;;;;;;;0.10;0.10;;;;;;;20.21;41.48;97527.53;6277505;22;20003;-87
2022/04/01 08:19:42;;;;;;;0.60;0.47;;;;;;;20.18;41.55;97498.44;6277361;22;20011;-86
2022/04/01 08:22:08;;;;;;;0.00;0.00;;;;;;;20.18;41.55;97506.59;6277718;22;20014;-87
2022/04/01 08:24:34;;;;;;;0.17;0.17;;;;;;;20.22;41.38;97522.91;6277339;22;20015;-88
2022/04/01 08:27:01;;;;;;;3.20;0.93;;;;;;;20.21;41.25;97515.91;6252116;22;20026;-87
2022/04/01 08:29:27;;;;;;;2.28;0.45;;;;;;;20.24;41.38;97532.22;6277174;22;20011;-86
2022/04/01 08:31:57;;;;;;;0.40;0.40;;;;;;;20.28;41.43;97500.44;6276910;22;20006;-85
2022/04/01 08:34:23;;;;;;;0.20;0.20;;;;;;;20.31;41.63;97509.75;6277457;22;20004;-87
2022/04/01 08:36:50;;;;;;;0.20;0.20;;;;;;;20.40;41.24;97480.34;6277014;22;20018;-87
2022/04/01 08:39:16;;;;;;;0.28;0.28;;;;;;;20.42;41.14;97513.34;6277295;22;20003;-87
2022/04/01 08:41:41;;;;;;;0.88;0.88;;;;;;;20.40;41.09;97507.50;6277155;22;20341;-84
2022/04/01 08:44:07;;;;;;;0.17;0.17;;;;;;;20.44;40.39;97516.44;6277639;22;20007;-87
2022/04/01 08:46:33;;;;;;;0.40;0.40;;;;;;;20.48;40.58;97502.88;6277398;22;20014;-85
2022/04/01 08:48:59;;;;;;;0.52;0.52;;;;;;;20.46;40.48;97500.56;6277037;22;20510;-86
2022/04/01 08:51:26;;;;;;;0.22;0.22;;;;;;;20.51;40.38;97472.25;6277404;22;20441;-86
2022/04/01 08:53:51;;;;;;;0.77;0.77;;;;;;;20.53;40.03;97499.81;6277009;22;20027;-86
2022/04/01 08:56:19;;;;;;;0.08;0.08;;;;;;;20.52;39.80;97430.38;6277196;22;20007;-86
2022/04/01 08:58:45;;;;;;;0.15;0.15;;;;;;;20.56;39.95;97452.13;6276965;22;20076;-85
2022/04/01 09:01:12;;;;;;;0.32;0.32;;;;;;;20.60;39.55;97448.25;6277278;22;20015;-86
2022/04/01 09:03:38;;;;;;;0.85;0.85;;;;;;;20.64;39.75;97468.06;6277153;22;20007;-86
2022/04/01 09:06:06;;;;;;;0.70;0.47;;;;;;;20.61;40.52;97465.31;6277350;22;20015;-86
2022/04/01 09:08:37;;;;;;;0.30;0.30;;;;;;;20.71;40.10;97439.38;6279119;22;20007;-86
2022/04/01 09:11:12;;;;;;;0.28;0.28;;;;;;;20.69;39.79;97453.34;6279300;22;20011;-86
2022/04/01 09:13:43;;;;;;;0.57;0.57;;;;;;;20.65;39.90;97447.09;6279428;22;20007;-87
2022/04/01 09:16:32;;;;;;;0.30;0.30;;;;;;;20.80;39.67;97469.72;6279428;22;20007;-87
2022/04/01 09:18:59;;;;;;;0.93;0.52;;;;;;;20.89;39.97;97466.63;6278811;22;20009;-86
2022/04/01 09:21:31;;;;;;;0.10;0.10;;;;;;;20.89;39.15;97423.16;6279312;22;20015;-86
2022/04/01 09:23:58;;;;;;;0.50;0.50;;;;;;;20.84;38.99;97431.69;6279036;22;20039;-86
2022/04/01 09:26:31;;;;;;;4.57;1.80;;;;;;;20.86;39.12;97446.44;6278961;22;20348;-86
2022/04/01 09:28:57;;;;;;;0.35;0.35;;;;;;;20.81;38.74;97440.59;6278914;22;20007;-84
2022/04/01 09:31:24;;;;;;;1.10;1.02;;;;;;;20.77;38.86;97444.06;6279139;22;20521;-86
2022/04/01 09:33:51;;;;;;;3.22;1.58;;;;;;;20.72;38.83;97390.09;6278815;22;20064;-86
2022/04/01 09:36:19;;;;;;;0.40;0.40;;;;;;;20.72;39.56;97438.25;6279184;22;20008;-86
2022/04/01 09:39:03;;;;;;;2.00;1.05;;;;;;;20.78;40.08;97469.31;6278731;22;19999;-85
2022/04/01 09:41:45;;;;;;;0.20;0.20;;;;;;;20.75;39.38;97451.03;6279223;22;20030;-86
2022/04/01 09:44:21;;;;;;;0.55;0.55;;;;;;;20.73;39.65;97465.00;6279112;22;20031;-85
2022/04/01 09:46:52;;;;;;;0.08;0.08;;;;;;;20.73;39.58;97459.56;6278740;22;20008;-86
2022/04/01 09:49:36;;;;;;;1.55;0.88;;;;;;;20.60;39.50;97434.69;6278885;22;20007;-88
2022/04/01 09:52:03;;;;;;;1.52;1.45;;;;;;;20.59;40.06;97440.47;6278614;22;20011;-87
2022/04/01 09:54:28;;;;;;;0.73;0.73;;;;;;;20.59;40.23;97476.56;6279574;22;20479;-85
2022/04/01 09:56:58;;;;;;;0.22;0.22;;;;;;;20.57;40.28;97421.84;6278706;22;20010;-86
2022/04/01 09:59:24;;;;;;;2.38;1.05;;;;;;;20.53;40.56;97461.81;6278906;22;20007;-87
2022/04/01 10:01:51;;;;;;;0.20;0.20;;;;;;;20.56;40.61;97452.13;6278582;22;20016;-87
2022/04/01 10:04:17;;;;;;;0.90;0.90;;;;;;;20.58;40.44;97445.13;6278623;22;19999;-87
2022/04/01 10:06:42;;;;;;;0.75;0.75;;;;;;;20.62;40.93;97453.31;6278395;22;20017;-87
2022/04/01 10:09:12;;;;;;;2.65;2.05;;;;;;;20.65;40.85;97444.38;6278772;22;20038;-87
2022/04/01 10:11:40;;;;;;;9.10;0.65;;;;;;;20.75;41.13;97440.97;6278700;22;20014;-87
2022/04/01 10:14:12;;;;;;;0.20;0.20;;;;;;;20.82;41.06;97413.03;6278675;22;20007;-86
2022/04/01 10:16:42;;;;;;;0.47;0.47;;;;;;;20.79;40.27;97413.81;6278677;22;20010;-86
2022/04/01 10:19:21;;;;;;;2.17;1.85;;;;;;;20.83;40.63;97427.41;6278515;22;20007;-87
2022/04/01 10:21:47;;;;;;;0.28;0.28;;;;;;;20.80;40.47;97415.38;6278466;22;20003;-87
2022/04/01 10:24:16;;;;;;;2.63;0.90;;;;;;;20.81;40.70;97414.19;6278410;22;20003;-87
2022/04/01 10:26:56;;;;;;;3.42;2.28;;;;;;;20.85;40.84;97453.03;6278723;22;20058;-87
2022/04/01 10:29:22;;;;;;;12.52;0.57;;;;;;;20.81;40.53;97438.63;6278339;22;20021;-87
2022/04/01 10:31:54;;;;;;;0.20;0.20;;;;;;;20.86;40.51;97429.34;6278250;22;20415;-87
2022/04/01 10:34:22;;;;;;;0.40;0.40;;;;;;;20.83;40.59;97373.84;6278694;22;20428;-86
2022/04/01 10:37:13;;;;;;;0.45;0.45;;;;;;;20.76;40.37;97406.41;6278432;22;20392;-85
2022/04/01 10:39:48;;;;;;;0.10;0.10;;;;;;;20.76;40.87;97417.28;6278673;22;20015;-85
2022/04/01 10:42:15;;;;;;;1.15;1.15;;;;;;;20.82;40.42;97382.38;6278859;22;20016;-86
2022/04/01 10:44:48;;;;;;;1.55;1.55;;;;;;;20.84;40.74;97410.72;6278462;22;20026;-87
2022/04/01 10:47:14;;;;;;;0.52;0.52;;;;;;;20.84;40.66;97391.69;6278398;22;20007;-86
2022/04/01 10:52:23;;;;;;;0.15;0.15;;;;;;;20.90;41.19;97403.75;6305634;22;20016;-86
2022/04/01 10:55:08;;;;;;;0.10;0.10;;;;;;;20.95;41.35;97378.91;6278028;22;20015;-85
2022/04/01 10:57:41;;;;;;;0.20;0.20;;;;;;;20.97;40.65;97413.06;6278267;22;20345;-86
2022/04/01 11:00:13;;;;;;;1.98;1.88;;;;;;;21.05;40.79;97399.09;6277695;22;20000;-86
2022/04/01 11:02:41;;;;;;;0.00;0.00;;;;;;;21.11;41.42;97402.22;6278295;22;20007;-87
2022/04/01 11:05:23;;;;;;;0.70;0.63;;;;;;;21.19;41.16;97403.00;6277924;22;20092;-86
2022/04/01 11:08:20;;;;;;;1.00;0.95;;;;;;;21.21;40.68;97411.56;6277933;22;20441;-86
2022/04/01 11:11:08;;;;;;;2.97;2.83;;;;;;;21.26;40.88;97411.97;6278129;22;20018;-86
2022/04/01 11:13:35;;;;;;;0.55;0.55;;;;;;;21.27;40.64;97407.28;6278145;22;20014;-87
2022/04/01 11:16:18;;;;;;;0.00;0.00;;;;;;;21.27;40.71;97423.59;6277892;22;20011;-86
2022/04/01 11:19:21;;;;;;;0.35;0.35;;;;;;;21.26;41.36;97431.00;6277883;22;20429;-86
2022/04/01 11:21:47;;;;;;;3.22;1.05;;;;;;;21.25;41.24;97404.97;6277676;22;20465;-87
2022/04/01 11:24:33;;;;;;;0.10;0.10;;;;;;;21.21;41.15;97425.16;6277712;22;20007;-87
2022/04/01 11:27:23;;;;;;;1.00;1.00;;;;;;;21.17;41.49;97427.09;6277756;22;20349;-88
2022/04/01 11:30:06;;;;;;;0.00;0.00;;;;;;;21.13;41.37;97418.13;6277599;22;20050;-87
2022/04/01 11:32:35;;;;;;;1.40;1.30;;;;;;;21.13;41.28;97413.50;6277891;22;20056;-89
2022/04/01 11:35:02;;;;;;;1.05;1.05;;;;;;;21.09;41.62;97427.09;6277725;22;20008;-88
2022/04/01 11:37:28;;;;;;;0.17;0.10;;;;;;;21.09;41.68;97415.41;6277855;22;20003;-88
2022/04/01 11:40:09;;;;;;;3.15;1.00;;;;;;;21.06;41.76;97433.28;6277669;22;20089;-88
2022/04/01 11:42:53;;;;;;;13.60;3.03;;;;;;;21.05;41.69;97420.06;6277952;22;20015;-88
2022/04/01 11:45:20;;;;;;;0.50;0.50;;;;;;;21.05;41.92;97425.50;6277850;22;20027;-88
2022/04/01 11:47:45;;;;;;;0.75;0.75;;;;;;;21.02;41.99;97418.13;6277951;22;20439;-88
2022/04/01 11:50:14;;;;;;;0.90;0.90;;;;;;;20.93;42.19;97427.44;6277342;22;20014;-88
2022/04/01 11:52:40;;;;;;;;;;;;;;;20.93;42.30;97453.81;6277830;22;20015;-84
2022/04/01 11:55:15;;;;;;;1.33;0.77;;;;;;;20.87;42.40;97407.25;6277360;22;19903;-81
2022/04/01 11:57:41;;;;;;;0.43;0.43;;;;;;;20.83;42.58;97414.59;6277683;22;20329;-81
2022/04/01 12:00:11;;;;;;;0.10;0.10;;;;;;;20.83;42.69;97413.81;6276668;22;20344;-80
2022/04/01 12:02:38;;;;;;;0.65;0.65;;;;;;;20.81;42.79;97395.16;6276395;22;20010;-83
2022/04/01 12:05:04;;;;;;;0.60;0.60;;;;;;;20.68;43.05;97397.44;6276556;22;20043;-79
2022/04/01 12:10:22;;;;;;;0.03;0.03;;;;;;;20.83;43.23;97400.25;6304009;22;20013;-79
2022/04/01 12:13:00;;;;;;;0.40;0.40;;;;;;;20.73;43.32;97382.75;6276513;22;20025;-79
2022/04/01 12:15:46;;;;;;;3.53;0.57;;;;;;;20.70;43.54;97345.44;6276837;22;20011;-80
2022/04/01 12:18:12;;;;;;;0.20;0.20;;;;;;;20.71;43.57;97371.47;6276452;22;20014;-80
2022/04/01 12:20:54;;;;;;;0.65;0.65;;;;;;;20.69;43.87;97387.34;6276066;22;20011;-84